»·PEaware :: DCM2499 KMCC-KMFR

DCM2499 :: KMCC-KMFR

FLIGHT INFORMATION

Flight Status: Arrived
Operator:
DotCom
More flights by this operator :: More flights under this callsign
Pilot: Alec D. (17934)
Aircraft: BEECH AIRCRAFT SUPER KING AIR COMMUTER
(BE20)
More flights by this aircraft type
Origin: KMCC McClellan
United States
Destination: KMFR Rogue Valley Intl-Medford
United States
More flights between these airports :: More routes between these airports
Route: +RBL FJS OED
File this flight plan on PilotEdge
Remarks:
Altitude:
(Current/Filed)
22,000ft
Speed:
(Current/Filed)
295kts
Departed: 24-Feb-18 01:25 PM
Arrived: 24-Feb-18 02:47 PM
Distance/Time
Traveled:
232nm/1:22
Distance/Time
To Go:
Arrived

Flight Plot

Page will automatically refresh every two minutes.

Flight plan parsing failed; only flown route is shown


Map Options




Map Legend


Flown Route
Filed Route
Departure Airport
Arrival Airport
Navaid (VOR, NDB)
Fix

Horizontal Profiles

Position Reports

Time Latitude Longitude Heading Altitude Ground
Speed
24-Feb-18 12:56 38.662191 -121.393905 90 79ft 0kts
24-Feb-18 12:57 38.662191 -121.393905 90 79ft 0kts
24-Feb-18 12:58 38.662191 -121.393905 90 79ft 0kts
24-Feb-18 12:59 38.662191 -121.393905 90 79ft 0kts
24-Feb-18 13:00 38.662191 -121.393905 90 79ft 0kts
24-Feb-18 13:01 38.662191 -121.393905 90 79ft 0kts
24-Feb-18 13:02 38.662191 -121.393905 90 79ft 0kts
24-Feb-18 13:03 38.662191 -121.393905 90 79ft 0kts
24-Feb-18 13:04 38.662191 -121.393900 89 79ft 0kts
24-Feb-18 13:05 38.662191 -121.393889 89 79ft 0kts
24-Feb-18 13:06 38.662191 -121.393883 89 79ft 0kts
24-Feb-18 13:07 38.662191 -121.393880 89 79ft 0kts
24-Feb-18 13:08 38.662191 -121.393876 89 79ft 0kts
24-Feb-18 13:09 38.662191 -121.393873 89 79ft 0kts
24-Feb-18 13:10 38.662191 -121.393870 89 79ft 0kts
24-Feb-18 13:11 38.662191 -121.393866 89 79ft 0kts
24-Feb-18 13:12 38.662191 -121.393863 89 79ft 0kts
24-Feb-18 13:13 38.662191 -121.393859 89 79ft 0kts
24-Feb-18 13:14 38.662192 -121.393856 89 79ft 0kts
24-Feb-18 13:15 38.662192 -121.393852 89 79ft 0kts
24-Feb-18 13:16 38.662192 -121.393848 89 79ft 0kts
24-Feb-18 13:17 38.662192 -121.393845 89 79ft 0kts
24-Feb-18 13:18 38.662210 -121.393765 50 79ft 3kts
24-Feb-18 13:19 38.661054 -121.397644 223 79ft 17kts
24-Feb-18 13:20 38.665661 -121.398813 0 79ft 24kts
24-Feb-18 13:21 38.671885 -121.398814 0 79ft 23kts
24-Feb-18 13:22 38.676976 -121.398796 359 79ft 0kts
24-Feb-18 13:23 38.677449 -121.398800 359 79ft 9kts
24-Feb-18 13:24 38.682258 -121.399158 251 79ft 0kts
24-Feb-18 13:25 38.682224 -121.399202 210 79ft 0kts
24-Feb-18 13:26 38.682220 -121.399205 210 79ft 0kts
24-Feb-18 13:27 38.682217 -121.399207 210 79ft 0kts
24-Feb-18 13:28 38.682214 -121.399210 210 79ft 0kts
24-Feb-18 13:29 38.682210 -121.399213 210 79ft 0kts
24-Feb-18 13:30 38.681885 -121.399437 224 79ft 2kts
24-Feb-18 13:31 38.681810 -121.399588 251 79ft 0kts
24-Feb-18 13:32 38.679994 -121.400589 181 79ft 46kts
24-Feb-18 13:33 38.649504 -121.399603 192 1031ft 145kts
24-Feb-18 13:34 38.637497 -121.444774 305 3198ft 158kts
24-Feb-18 13:35 38.677025 -121.448907 352 6115ft 141kts
24-Feb-18 13:36 38.716267 -121.447895 352 8115ft 142kts
24-Feb-18 13:37 38.755035 -121.453756 340 10125ft 138kts
24-Feb-18 13:38 38.791401 -121.471929 335 11831ft 143kts
24-Feb-18 13:39 38.828236 -121.492805 336 13617ft 144kts
24-Feb-18 13:40 38.863426 -121.512973 333 15710ft 134kts
24-Feb-18 13:41 38.897822 -121.532786 334 17508ft 139kts
24-Feb-18 13:42 38.933336 -121.553246 335 19247ft 142kts
24-Feb-18 13:43 38.970316 -121.574539 336 20956ft 148kts
24-Feb-18 13:44 39.009139 -121.596917 337 22362ft 166kts
24-Feb-18 13:45 39.056883 -121.624363 336 22431ft 204kts
24-Feb-18 13:46 39.110131 -121.655100 336 22429ft 214kts
24-Feb-18 13:47 39.165307 -121.687037 336 22429ft 218kts
24-Feb-18 13:48 39.220769 -121.719243 337 22430ft 218kts
24-Feb-18 13:49 39.276132 -121.751403 337 22430ft 218kts
24-Feb-18 13:50 39.331614 -121.783723 337 22429ft 218kts
24-Feb-18 13:51 39.386830 -121.815954 337 22428ft 217kts
24-Feb-18 13:52 39.441956 -121.848165 337 22425ft 216kts
24-Feb-18 13:53 39.496452 -121.880080 337 22425ft 215kts
24-Feb-18 13:54 39.550852 -121.911979 337 22409ft 214kts
24-Feb-18 13:55 39.605412 -121.944062 338 22390ft 214kts
24-Feb-18 13:56 39.659637 -121.975965 338 22392ft 214kts
24-Feb-18 13:57 39.713819 -122.007899 338 22395ft 214kts
24-Feb-18 13:58 39.768181 -122.040069 338 22385ft 214kts
24-Feb-18 13:59 39.822422 -122.072122 338 22383ft 214kts
24-Feb-18 14:00 39.876600 -122.104282 338 22383ft 214kts
24-Feb-18 14:01 39.931194 -122.136510 338 22374ft 215kts
24-Feb-18 14:02 39.985794 -122.168906 338 22374ft 216kts
24-Feb-18 14:03 40.040705 -122.201607 338 22371ft 216kts
24-Feb-18 14:04 40.095707 -122.234140 340 22349ft 217kts
24-Feb-18 14:05 40.153000 -122.258931 343 22348ft 216kts
24-Feb-18 14:06 40.210417 -122.282624 343 22349ft 216kts
24-Feb-18 14:07 40.267769 -122.306426 343 22343ft 216kts
24-Feb-18 14:08 40.325108 -122.330231 343 22336ft 215kts
24-Feb-18 14:09 40.382030 -122.353942 343 22331ft 214kts
24-Feb-18 14:10 40.438798 -122.377643 343 22321ft 214kts
24-Feb-18 14:11 40.495437 -122.401289 343 22310ft 212kts
24-Feb-18 14:12 40.551697 -122.424859 343 22310ft 212kts
24-Feb-18 14:13 40.607993 -122.448491 344 22303ft 212kts
24-Feb-18 14:14 40.664051 -122.472015 343 22294ft 211kts
24-Feb-18 14:15 40.719953 -122.495569 343 22292ft 211kts
24-Feb-18 14:16 40.776034 -122.519237 343 22291ft 211kts
24-Feb-18 14:17 40.831896 -122.542824 344 22234ft 209kts
24-Feb-18 14:18 40.887193 -122.566242 344 22226ft 207kts
24-Feb-18 14:19 40.941897 -122.589460 344 22224ft 206kts
24-Feb-18 14:20 40.996122 -122.612460 345 22238ft 203kts
24-Feb-18 14:21 41.050028 -122.635425 345 22236ft 203kts
24-Feb-18 14:22 41.103766 -122.658338 345 22228ft 203kts
24-Feb-18 14:23 41.157264 -122.681170 345 22227ft 201kts
24-Feb-18 14:24 41.211512 -122.704368 345 21305ft 204kts
24-Feb-18 14:25 41.256699 -122.723542 344 20386ft 204kts
24-Feb-18 14:26 41.319868 -122.750552 343 19100ft 203kts
24-Feb-18 14:27 41.373099 -122.773386 343 18001ft 196kts
24-Feb-18 14:28 41.424473 -122.795559 343 16900ft 192kts
24-Feb-18 14:29 41.476612 -122.809016 351 15831ft 191kts
24-Feb-18 14:30 41.520798 -122.813711 352 14917ft 191kts
24-Feb-18 14:31 41.573576 -122.819115 351 13817ft 189kts
24-Feb-18 14:32 41.635039 -122.825448 351 12532ft 189kts
24-Feb-18 14:33 41.678411 -122.829916 351 11937ft 182kts
24-Feb-18 14:34 41.728072 -122.835095 351 11921ft 176kts
24-Feb-18 14:35 41.776854 -122.840008 351 11918ft 175kts
24-Feb-18 14:36 41.825508 -122.845031 351 11919ft 175kts
24-Feb-18 14:37 41.874220 -122.850118 351 11934ft 175kts
24-Feb-18 14:38 41.923087 -122.853357 6 11931ft 183kts
24-Feb-18 14:39 41.969110 -122.813778 19 11504ft 203kts
24-Feb-18 14:40 42.015881 -122.772016 20 10119ft 199kts
24-Feb-18 14:41 42.059385 -122.750291 347 9816ft 152kts
24-Feb-18 14:42 42.099216 -122.763969 342 9073ft 142kts
24-Feb-18 14:43 42.135168 -122.777939 341 8462ft 123kts
24-Feb-18 14:44 42.163110 -122.788856 340 8448ft 93kts
24-Feb-18 14:45 42.187875 -122.798538 339 7769ft 93kts
24-Feb-18 14:46 42.211400 -122.807735 338 6990ft 83kts
24-Feb-18 14:47 42.234140 -122.816647 338 6209ft 88kts
24-Feb-18 14:48 42.256565 -122.825064 336 5408ft 81kts
24-Feb-18 14:49 42.277874 -122.833353 340 4481ft 85kts
24-Feb-18 14:50 42.301426 -122.838669 344 3341ft 91kts
24-Feb-18 14:51 42.326113 -122.847366 336 2351ft 88kts
24-Feb-18 14:52 42.349439 -122.859870 334 1656ft 88kts
24-Feb-18 14:53 42.371198 -122.871360 339 1339ft 49kts
24-Feb-18 14:54 42.372901 -122.873299 235 1339ft 0kts
24-Feb-18 14:55 42.370442 -122.872153 149 1339ft 23kts
24-Feb-18 14:56 42.370106 -122.874419 198 1339ft 2kts
24-Feb-18 14:57 42.370100 -122.874422 198 1339ft 0kts
24-Feb-18 14:58 42.370100 -122.874422 198 1339ft 0kts
24-Feb-18 14:59 42.370100 -122.874422 198 1339ft 0kts
24-Feb-18 15:00 42.370100 -122.874422 198 1339ft 0kts
24-Feb-18 15:01 42.370100 -122.874422 198 1339ft 0kts
24-Feb-18 15:02 42.370100 -122.874422 198 1339ft 0kts
24-Feb-18 15:03 42.370100 -122.874422 198 1339ft 0kts
24-Feb-18 15:04 42.370100 -122.874422 198 1339ft 0kts
24-Feb-18 15:05 42.370100 -122.874422 198 1339ft 0kts
24-Feb-18 15:06 42.370100 -122.874422 198 1339ft 0kts
24-Feb-18 15:07 42.370100 -122.874422 198 1339ft 0kts
24-Feb-18 15:08 42.370100 -122.874422 198 1339ft 0kts

Navigation Log

Ident Type
Flight plan parsing failed, navigation log unavailable